Terminal Aerodrome Forecast
Issued by NWS Blacksburg, VA

Home | Current Version | Previous Version | Text Only | Print | Product List | Glossary On
Versions: 1 2 3 4 5 6 7 8 9 10 11 12 13 14 15 16 17 18 19
000
FTUS41 KRNK 302331
TAFDAN
TAF
KDAN 302331Z 3100/3124 07005KT P6SM SCT035
     FM310200 VRB03KT P6SM VCTS BKN040CB
     FM310600 00000KT 4SM BR SCT050
      TEMPO 3110/3112 1 1/2SM BR BKN007
     FM311400 06006KT P6SM SCT015=

USA.gov is the U.S. government's official web portal to all federal, state and local government web resources and services.